sensor_id;sensor_type;location;lat;lon;timestamp;temperature;humidity
34815;DHT22;21030;53.912;15.214;2024-02-28T00:02:12;32.10;23.70
34815;DHT22;21030;53.912;15.214;2024-02-28T00:04:40;31.90;23.80
34815;DHT22;21030;53.912;15.214;2024-02-28T00:07:07;31.70;24.00
34815;DHT22;21030;53.912;15.214;2024-02-28T00:09:34;31.90;24.00
34815;DHT22;21030;53.912;15.214;2024-02-28T00:12:01;31.90;23.90
34815;DHT22;21030;53.912;15.214;2024-02-28T00:14:28;31.90;23.80
34815;DHT22;21030;53.912;15.214;2024-02-28T00:16:56;31.70;23.80
34815;DHT22;21030;53.912;15.214;2024-02-28T00:19:23;31.70;24.00
34815;DHT22;21030;53.912;15.214;2024-02-28T00:21:52;31.70;24.00
34815;DHT22;21030;53.912;15.214;2024-02-28T00:24:19;31.80;23.90
34815;DHT22;21030;53.912;15.214;2024-02-28T00:26:46;32.00;23.70
34815;DHT22;21030;53.912;15.214;2024-02-28T00:29:13;32.10;23.60
34815;DHT22;21030;53.912;15.214;2024-02-28T00:31:40;32.30;23.50
34815;DHT22;21030;53.912;15.214;2024-02-28T00:34:07;32.10;23.60
34815;DHT22;21030;53.912;15.214;2024-02-28T00:36:36;32.30;23.50
34815;DHT22;21030;53.912;15.214;2024-02-28T00:39:20;32.60;23.40
34815;DHT22;21030;53.912;15.214;2024-02-28T00:41:47;32.20;23.40
34815;DHT22;21030;53.912;15.214;2024-02-28T00:44:14;32.00;23.60
34815;DHT22;21030;53.912;15.214;2024-02-28T00:46:41;32.30;23.50
34815;DHT22;21030;53.912;15.214;2024-02-28T00:49:08;32.40;23.40
34815;DHT22;21030;53.912;15.214;2024-02-28T00:51:35;32.70;23.30
34815;DHT22;21030;53.912;15.214;2024-02-28T00:54:04;32.60;23.20
34815;DHT22;21030;53.912;15.214;2024-02-28T00:56:31;32.70;23.30
34815;DHT22;21030;53.912;15.214;2024-02-28T00:58:58;32.90;23.20
34815;DHT22;21030;53.912;15.214;2024-02-28T01:01:25;32.90;23.10
34815;DHT22;21030;53.912;15.214;2024-02-28T01:03:52;33.00;23.00
34815;DHT22;21030;53.912;15.214;2024-02-28T01:06:20;33.00;23.00
34815;DHT22;21030;53.912;15.214;2024-02-28T01:08:47;33.10;22.90
34815;DHT22;21030;53.912;15.214;2024-02-28T01:11:14;33.00;23.00
34815;DHT22;21030;53.912;15.214;2024-02-28T01:13:41;33.00;23.00
34815;DHT22;21030;53.912;15.214;2024-02-28T01:16:08;33.10;23.00
34815;DHT22;21030;53.912;15.214;2024-02-28T01:18:35;33.10;22.90
34815;DHT22;21030;53.912;15.214;2024-02-28T01:21:02;33.10;22.90
34815;DHT22;21030;53.912;15.214;2024-02-28T01:23:29;33.20;22.80
34815;DHT22;21030;53.912;15.214;2024-02-28T01:25:56;33.20;22.80
34815;DHT22;21030;53.912;15.214;2024-02-28T01:28:23;33.20;22.90
34815;DHT22;21030;53.912;15.214;2024-02-28T01:30:50;33.00;23.00
34815;DHT22;21030;53.912;15.214;2024-02-28T01:33:17;32.80;23.00
34815;DHT22;21030;53.912;15.214;2024-02-28T01:35:44;32.80;23.10
34815;DHT22;21030;53.912;15.214;2024-02-28T01:38:11;32.70;23.10
34815;DHT22;21030;53.912;15.214;2024-02-28T01:40:38;32.80;23.00
34815;DHT22;21030;53.912;15.214;2024-02-28T01:43:08;33.00;22.90
34815;DHT22;21030;53.912;15.214;2024-02-28T01:45:35;33.10;22.80
34815;DHT22;21030;53.912;15.214;2024-02-28T01:48:03;33.20;22.70
34815;DHT22;21030;53.912;15.214;2024-02-28T01:50:32;33.30;22.70
34815;DHT22;21030;53.912;15.214;2024-02-28T01:53:00;33.40;22.70
34815;DHT22;21030;53.912;15.214;2024-02-28T01:55:28;33.50;22.70
34815;DHT22;21030;53.912;15.214;2024-02-28T01:57:55;33.50;22.70
34815;DHT22;21030;53.912;15.214;2024-02-28T02:00:24;33.40;22.70
34815;DHT22;21030;53.912;15.214;2024-02-28T02:02:52;33.20;22.70
34815;DHT22;21030;53.912;15.214;2024-02-28T02:05:19;32.90;22.80
34815;DHT22;21030;53.912;15.214;2024-02-28T02:07:48;32.90;23.00
34815;DHT22;21030;53.912;15.214;2024-02-28T02:10:15;32.90;23.00
34815;DHT22;21030;53.912;15.214;2024-02-28T02:12:42;32.80;22.90
34815;DHT22;21030;53.912;15.214;2024-02-28T02:15:09;32.90;22.90
34815;DHT22;21030;53.912;15.214;2024-02-28T02:17:37;32.60;22.90
34815;DHT22;21030;53.912;15.214;2024-02-28T02:20:05;32.90;23.00
34815;DHT22;21030;53.912;15.214;2024-02-28T02:22:41;33.00;22.90
34815;DHT22;21030;53.912;15.214;2024-02-28T02:25:09;33.00;22.80
34815;DHT22;21030;53.912;15.214;2024-02-28T02:27:36;33.10;22.80
34815;DHT22;21030;53.912;15.214;2024-02-28T02:30:03;33.00;22.80
34815;DHT22;21030;53.912;15.214;2024-02-28T02:32:30;33.00;22.90
34815;DHT22;21030;53.912;15.214;2024-02-28T02:34:58;33.00;22.90
34815;DHT22;21030;53.912;15.214;2024-02-28T02:37:27;32.90;22.80
34815;DHT22;21030;53.912;15.214;2024-02-28T02:39:55;32.90;22.90
34815;DHT22;21030;53.912;15.214;2024-02-28T02:42:24;32.90;23.00
34815;DHT22;21030;53.912;15.214;2024-02-28T02:44:53;32.70;23.00
34815;DHT22;21030;53.912;15.214;2024-02-28T02:47:22;32.60;23.10
34815;DHT22;21030;53.912;15.214;2024-02-28T02:49:51;32.60;23.10
34815;DHT22;21030;53.912;15.214;2024-02-28T02:52:19;32.60;23.00
34815;DHT22;21030;53.912;15.214;2024-02-28T02:54:48;32.40;23.20
34815;DHT22;21030;53.912;15.214;2024-02-28T02:57:18;32.10;23.40
34815;DHT22;21030;53.912;15.214;2024-02-28T02:59:46;32.20;23.50
34815;DHT22;21030;53.912;15.214;2024-02-28T03:02:15;32.40;23.40
34815;DHT22;21030;53.912;15.214;2024-02-28T03:04:44;32.40;23.20
34815;DHT22;21030;53.912;15.214;2024-02-28T03:07:13;32.50;23.20
34815;DHT22;21030;53.912;15.214;2024-02-28T03:09:42;32.50;23.20
34815;DHT22;21030;53.912;15.214;2024-02-28T03:12:11;32.60;23.20
34815;DHT22;21030;53.912;15.214;2024-02-28T03:14:40;32.40;23.20
34815;DHT22;21030;53.912;15.214;2024-02-28T03:17:09;32.60;23.10
34815;DHT22;21030;53.912;15.214;2024-02-28T03:19:38;32.90;23.10
34815;DHT22;21030;53.912;15.214;2024-02-28T03:22:07;33.00;23.00
34815;DHT22;21030;53.912;15.214;2024-02-28T03:24:35;32.90;23.00
34815;DHT22;21030;53.912;15.214;2024-02-28T03:27:06;32.90;23.00
34815;DHT22;21030;53.912;15.214;2024-02-28T03:29:35;32.90;22.90
34815;DHT22;21030;53.912;15.214;2024-02-28T03:32:04;32.90;22.80
34815;DHT22;21030;53.912;15.214;2024-02-28T03:34:33;32.90;22.90
34815;DHT22;21030;53.912;15.214;2024-02-28T03:37:02;32.90;22.90
34815;DHT22;21030;53.912;15.214;2024-02-28T03:39:31;32.90;22.80
34815;DHT22;21030;53.912;15.214;2024-02-28T03:42:00;32.80;22.80
34815;DHT22;21030;53.912;15.214;2024-02-28T03:44:29;32.90;22.90
34815;DHT22;21030;53.912;15.214;2024-02-28T03:46:57;32.90;22.80
34815;DHT22;21030;53.912;15.214;2024-02-28T03:49:26;33.10;22.80
34815;DHT22;21030;53.912;15.214;2024-02-28T03:51:55;33.10;22.70
34815;DHT22;21030;53.912;15.214;2024-02-28T03:54:24;33.10;22.60
34815;DHT22;21030;53.912;15.214;2024-02-28T03:56:52;33.10;22.60
34815;DHT22;21030;53.912;15.214;2024-02-28T03:59:21;33.10;22.70
34815;DHT22;21030;53.912;15.214;2024-02-28T04:01:50;33.10;22.60
34815;DHT22;21030;53.912;15.214;2024-02-28T04:04:20;33.20;22.60
34815;DHT22;21030;53.912;15.214;2024-02-28T04:06:48;33.30;22.70
34815;DHT22;21030;53.912;15.214;2024-02-28T04:09:18;33.20;22.70
34815;DHT22;21030;53.912;15.214;2024-02-28T04:11:48;33.20;22.70
34815;DHT22;21030;53.912;15.214;2024-02-28T04:14:16;33.20;22.70
34815;DHT22;21030;53.912;15.214;2024-02-28T04:16:44;33.30;22.70
34815;DHT22;21030;53.912;15.214;2024-02-28T04:19:12;33.30;22.70
34815;DHT22;21030;53.912;15.214;2024-02-28T04:21:41;33.00;22.80
34815;DHT22;21030;53.912;15.214;2024-02-28T04:24:10;32.90;22.90
34815;DHT22;21030;53.912;15.214;2024-02-28T04:26:43;32.90;22.80
34815;DHT22;21030;53.912;15.214;2024-02-28T04:29:12;32.90;22.80
34815;DHT22;21030;53.912;15.214;2024-02-28T04:31:42;32.90;22.80
34815;DHT22;21030;53.912;15.214;2024-02-28T04:34:11;32.80;23.00
34815;DHT22;21030;53.912;15.214;2024-02-28T04:36:41;32.90;23.00
34815;DHT22;21030;53.912;15.214;2024-02-28T04:39:09;32.70;23.00
34815;DHT22;21030;53.912;15.214;2024-02-28T04:41:37;32.60;23.00
34815;DHT22;21030;53.912;15.214;2024-02-28T04:44:06;32.70;23.00
34815;DHT22;21030;53.912;15.214;2024-02-28T04:46:37;32.80;23.00
34815;DHT22;21030;53.912;15.214;2024-02-28T04:49:05;32.70;23.00
34815;DHT22;21030;53.912;15.214;2024-02-28T04:51:34;32.70;23.60
34815;DHT22;21030;53.912;15.214;2024-02-28T04:54:03;32.60;22.90
34815;DHT22;21030;53.912;15.214;2024-02-28T04:56:31;32.80;23.00
34815;DHT22;21030;53.912;15.214;2024-02-28T04:58:58;32.70;23.00
34815;DHT22;21030;53.912;15.214;2024-02-28T05:01:25;32.60;23.00
34815;DHT22;21030;53.912;15.214;2024-02-28T05:03:52;32.60;23.10
34815;DHT22;21030;53.912;15.214;2024-02-28T05:06:19;32.60;23.10
34815;DHT22;21030;53.912;15.214;2024-02-28T05:08:46;32.80;23.00
34815;DHT22;21030;53.912;15.214;2024-02-28T05:11:13;33.00;22.90
34815;DHT22;21030;53.912;15.214;2024-02-28T05:13:40;33.00;22.90
34815;DHT22;21030;53.912;15.214;2024-02-28T05:16:15;33.10;22.80
34815;DHT22;21030;53.912;15.214;2024-02-28T05:18:44;33.00;22.90
34815;DHT22;21030;53.912;15.214;2024-02-28T05:21:12;32.90;22.80
34815;DHT22;21030;53.912;15.214;2024-02-28T05:23:40;32.90;22.90
34815;DHT22;21030;53.912;15.214;2024-02-28T05:26:07;32.90;23.00
34815;DHT22;21030;53.912;15.214;2024-02-28T05:28:34;33.00;23.10
34815;DHT22;21030;53.912;15.214;2024-02-28T05:31:23;32.80;23.00
34815;DHT22;21030;53.912;15.214;2024-02-28T05:33:53;32.80;23.10
34815;DHT22;21030;53.912;15.214;2024-02-28T05:36:22;32.80;23.10
34815;DHT22;21030;53.912;15.214;2024-02-28T05:38:50;32.50;23.20
34815;DHT22;21030;53.912;15.214;2024-02-28T05:41:18;32.60;23.30
34815;DHT22;21030;53.912;15.214;2024-02-28T05:43:46;32.50;23.10
34815;DHT22;21030;53.912;15.214;2024-02-28T05:46:14;32.60;23.20
34815;DHT22;21030;53.912;15.214;2024-02-28T05:48:44;32.50;23.20
34815;DHT22;21030;53.912;15.214;2024-02-28T05:51:12;32.60;23.20
34815;DHT22;21030;53.912;15.214;2024-02-28T05:53:42;32.50;23.10
34815;DHT22;21030;53.912;15.214;2024-02-28T05:56:10;32.50;23.30
34815;DHT22;21030;53.912;15.214;2024-02-28T05:58:44;32.50;23.40
34815;DHT22;21030;53.912;15.214;2024-02-28T06:01:12;32.60;23.20
34815;DHT22;21030;53.912;15.214;2024-02-28T06:03:39;32.50;23.50
34815;DHT22;21030;53.912;15.214;2024-02-28T06:06:07;32.60;23.30
34815;DHT22;21030;53.912;15.214;2024-02-28T06:08:34;32.50;23.40
34815;DHT22;21030;53.912;15.214;2024-02-28T06:11:02;32.50;23.30
34815;DHT22;21030;53.912;15.214;2024-02-28T06:13:29;32.70;23.20
34815;DHT22;21030;53.912;15.214;2024-02-28T06:15:56;32.80;23.10
34815;DHT22;21030;53.912;15.214;2024-02-28T06:18:25;32.70;23.10
34815;DHT22;21030;53.912;15.214;2024-02-28T06:20:54;32.50;23.30
34815;DHT22;21030;53.912;15.214;2024-02-28T06:23:24;32.50;23.40
34815;DHT22;21030;53.912;15.214;2024-02-28T06:25:56;32.70;23.20
34815;DHT22;21030;53.912;15.214;2024-02-28T06:28:23;32.70;23.20
34815;DHT22;21030;53.912;15.214;2024-02-28T06:30:52;32.50;23.30
34815;DHT22;21030;53.912;15.214;2024-02-28T06:33:19;32.20;23.70
34815;DHT22;21030;53.912;15.214;2024-02-28T06:35:46;31.90;23.70
34815;DHT22;21030;53.912;15.214;2024-02-28T06:38:13;32.20;23.70
34815;DHT22;21030;53.912;15.214;2024-02-28T06:40:40;32.20;23.50
34815;DHT22;21030;53.912;15.214;2024-02-28T06:43:08;32.20;23.50
34815;DHT22;21030;53.912;15.214;2024-02-28T06:45:35;32.20;23.50
34815;DHT22;21030;53.912;15.214;2024-02-28T06:48:04;32.30;23.40
34815;DHT22;21030;53.912;15.214;2024-02-28T06:50:32;32.40;23.40
34815;DHT22;21030;53.912;15.214;2024-02-28T06:52:59;32.50;23.30
34815;DHT22;21030;53.912;15.214;2024-02-28T06:55:26;32.50;23.20
34815;DHT22;21030;53.912;15.214;2024-02-28T06:57:53;32.60;23.30
34815;DHT22;21030;53.912;15.214;2024-02-28T07:00:20;32.70;23.20
34815;DHT22;21030;53.912;15.214;2024-02-28T07:02:47;32.70;23.10
34815;DHT22;21030;53.912;15.214;2024-02-28T07:05:14;32.90;23.00
34815;DHT22;21030;53.912;15.214;2024-02-28T07:07:41;33.00;23.00
34815;DHT22;21030;53.912;15.214;2024-02-28T07:10:08;33.10;22.90
34815;DHT22;21030;53.912;15.214;2024-02-28T07:12:35;33.10;22.80
34815;DHT22;21030;53.912;15.214;2024-02-28T07:15:03;33.10;22.80
34815;DHT22;21030;53.912;15.214;2024-02-28T07:17:30;33.10;22.70
34815;DHT22;21030;53.912;15.214;2024-02-28T07:19:57;33.10;22.80
34815;DHT22;21030;53.912;15.214;2024-02-28T07:22:24;33.10;22.80
34815;DHT22;21030;53.912;15.214;2024-02-28T07:24:51;33.00;22.90
34815;DHT22;21030;53.912;15.214;2024-02-28T07:27:18;32.90;22.80
34815;DHT22;21030;53.912;15.214;2024-02-28T07:29:45;32.70;22.90
34815;DHT22;21030;53.912;15.214;2024-02-28T07:32:12;32.60;23.20
34815;DHT22;21030;53.912;15.214;2024-02-28T07:34:39;32.60;23.30
34815;DHT22;21030;53.912;15.214;2024-02-28T07:37:07;32.60;23.20
34815;DHT22;21030;53.912;15.214;2024-02-28T07:39:34;32.70;23.00
34815;DHT22;21030;53.912;15.214;2024-02-28T07:42:01;32.80;23.10
34815;DHT22;21030;53.912;15.214;2024-02-28T07:44:28;32.60;23.10
34815;DHT22;21030;53.912;15.214;2024-02-28T07:46:58;32.20;23.40
34815;DHT22;21030;53.912;15.214;2024-02-28T07:49:25;32.40;23.40
34815;DHT22;21030;53.912;15.214;2024-02-28T07:51:54;32.40;23.30
34815;DHT22;21030;53.912;15.214;2024-02-28T07:54:22;32.40;23.30
34815;DHT22;21030;53.912;15.214;2024-02-28T07:56:49;32.50;23.30
34815;DHT22;21030;53.912;15.214;2024-02-28T07:59:16;32.70;23.10
34815;DHT22;21030;53.912;15.214;2024-02-28T08:01:43;32.70;23.00
34815;DHT22;21030;53.912;15.214;2024-02-28T08:04:10;32.90;23.10
34815;DHT22;21030;53.912;15.214;2024-02-28T08:06:39;32.90;23.10
34815;DHT22;21030;53.912;15.214;2024-02-28T08:09:06;32.50;23.10
34815;DHT22;21030;53.912;15.214;2024-02-28T08:11:38;32.60;23.00
34815;DHT22;21030;53.912;15.214;2024-02-28T08:14:05;32.70;22.90
34815;DHT22;21030;53.912;15.214;2024-02-28T08:16:32;32.90;22.90
34815;DHT22;21030;53.912;15.214;2024-02-28T08:18:59;33.00;22.80
34815;DHT22;21030;53.912;15.214;2024-02-28T08:21:27;33.10;22.70
34815;DHT22;21030;53.912;15.214;2024-02-28T08:23:54;33.30;22.80
34815;DHT22;21030;53.912;15.214;2024-02-28T08:26:23;33.20;22.70
34815;DHT22;21030;53.912;15.214;2024-02-28T08:28:50;33.00;22.80
34815;DHT22;21030;53.912;15.214;2024-02-28T08:31:17;33.00;23.00
34815;DHT22;21030;53.912;15.214;2024-02-28T08:33:44;33.10;23.40
34815;DHT22;21030;53.912;15.214;2024-02-28T08:36:11;33.20;22.80
34815;DHT22;21030;53.912;15.214;2024-02-28T08:38:38;33.30;22.80
34815;DHT22;21030;53.912;15.214;2024-02-28T08:41:06;33.30;23.10
34815;DHT22;21030;53.912;15.214;2024-02-28T08:43:38;33.40;22.90
34815;DHT22;21030;53.912;15.214;2024-02-28T08:46:05;33.50;22.70
34815;DHT22;21030;53.912;15.214;2024-02-28T08:48:33;33.50;22.50
34815;DHT22;21030;53.912;15.214;2024-02-28T08:51:00;33.50;22.50
34815;DHT22;21030;53.912;15.214;2024-02-28T08:53:28;33.40;22.40
34815;DHT22;21030;53.912;15.214;2024-02-28T08:55:55;33.40;22.50
34815;DHT22;21030;53.912;15.214;2024-02-28T08:58:22;33.30;22.50
34815;DHT22;21030;53.912;15.214;2024-02-28T09:00:49;33.20;22.50
34815;DHT22;21030;53.912;15.214;2024-02-28T09:03:16;33.20;22.50
34815;DHT22;21030;53.912;15.214;2024-02-28T09:05:43;33.30;22.50
34815;DHT22;21030;53.912;15.214;2024-02-28T09:08:10;33.30;22.60
34815;DHT22;21030;53.912;15.214;2024-02-28T09:10:40;33.30;22.50
34815;DHT22;21030;53.912;15.214;2024-02-28T09:13:07;33.20;22.40
34815;DHT22;21030;53.912;15.214;2024-02-28T09:15:36;33.40;22.50
34815;DHT22;21030;53.912;15.214;2024-02-28T09:18:03;33.40;22.50
34815;DHT22;21030;53.912;15.214;2024-02-28T09:20:30;33.40;22.30
34815;DHT22;21030;53.912;15.214;2024-02-28T09:22:57;33.50;22.30
34815;DHT22;21030;53.912;15.214;2024-02-28T09:25:24;33.60;22.30
34815;DHT22;21030;53.912;15.214;2024-02-28T09:27:54;33.80;22.30
34815;DHT22;21030;53.912;15.214;2024-02-28T09:30:22;33.80;22.20
34815;DHT22;21030;53.912;15.214;2024-02-28T09:32:52;33.70;22.10
34815;DHT22;21030;53.912;15.214;2024-02-28T09:35:20;33.80;22.30
34815;DHT22;21030;53.912;15.214;2024-02-28T09:37:48;33.80;22.20
34815;DHT22;21030;53.912;15.214;2024-02-28T09:40:16;33.90;22.00
34815;DHT22;21030;53.912;15.214;2024-02-28T09:42:53;33.60;21.90
34815;DHT22;21030;53.912;15.214;2024-02-28T09:45:21;33.60;22.20
34815;DHT22;21030;53.912;15.214;2024-02-28T09:47:49;33.70;22.30
34815;DHT22;21030;53.912;15.214;2024-02-28T09:50:18;33.20;22.20
34815;DHT22;21030;53.912;15.214;2024-02-28T09:52:45;33.60;22.30
34815;DHT22;21030;53.912;15.214;2024-02-28T09:55:27;33.50;22.20
34815;DHT22;21030;53.912;15.214;2024-02-28T09:57:55;33.40;22.40
34815;DHT22;21030;53.912;15.214;2024-02-28T10:00:23;33.40;22.40
34815;DHT22;21030;53.912;15.214;2024-02-28T10:02:50;33.30;22.30
34815;DHT22;21030;53.912;15.214;2024-02-28T10:05:18;33.30;22.30
34815;DHT22;21030;53.912;15.214;2024-02-28T10:07:46;33.30;22.50
34815;DHT22;21030;53.912;15.214;2024-02-28T10:10:13;33.10;22.40
34815;DHT22;21030;53.912;15.214;2024-02-28T10:12:41;32.90;22.80
34815;DHT22;21030;53.912;15.214;2024-02-28T10:15:12;33.00;22.80
34815;DHT22;21030;53.912;15.214;2024-02-28T10:17:39;32.90;22.70
34815;DHT22;21030;53.912;15.214;2024-02-28T10:20:06;33.10;22.70
34815;DHT22;21030;53.912;15.214;2024-02-28T10:22:34;33.10;22.80
34815;DHT22;21030;53.912;15.214;2024-02-28T10:25:02;33.10;22.80
34815;DHT22;21030;53.912;15.214;2024-02-28T10:27:34;33.10;22.70
34815;DHT22;21030;53.912;15.214;2024-02-28T10:30:03;33.00;22.70
34815;DHT22;21030;53.912;15.214;2024-02-28T10:32:34;33.10;22.70
34815;DHT22;21030;53.912;15.214;2024-02-28T10:35:04;33.10;22.80
34815;DHT22;21030;53.912;15.214;2024-02-28T10:37:37;33.00;22.70
34815;DHT22;21030;53.912;15.214;2024-02-28T10:40:06;33.10;22.60
34815;DHT22;21030;53.912;15.214;2024-02-28T10:42:35;32.80;22.70
34815;DHT22;21030;53.912;15.214;2024-02-28T10:45:03;32.00;22.60
34815;DHT22;21030;53.912;15.214;2024-02-28T10:47:47;32.30;22.90
34815;DHT22;21030;53.912;15.214;2024-02-28T10:50:17;31.70;23.10
34815;DHT22;21030;53.912;15.214;2024-02-28T10:52:44;32.40;23.10
34815;DHT22;21030;53.912;15.214;2024-02-28T10:55:23;32.70;22.90
34815;DHT22;21030;53.912;15.214;2024-02-28T10:58:01;32.80;22.80
34815;DHT22;21030;53.912;15.214;2024-02-28T11:00:30;32.50;23.40
34815;DHT22;21030;53.912;15.214;2024-02-28T11:02:59;32.30;22.90
34815;DHT22;21030;53.912;15.214;2024-02-28T11:05:36;31.70;23.40
34815;DHT22;21030;53.912;15.214;2024-02-28T11:08:08;32.00;23.30
34815;DHT22;21030;53.912;15.214;2024-02-28T11:10:40;32.50;23.20
34815;DHT22;21030;53.912;15.214;2024-02-28T11:13:07;32.50;23.00
34815;DHT22;21030;53.912;15.214;2024-02-28T11:15:35;32.70;23.00
34815;DHT22;21030;53.912;15.214;2024-02-28T11:18:09;32.70;22.80
34815;DHT22;21030;53.912;15.214;2024-02-28T11:20:36;32.70;22.90
34815;DHT22;21030;53.912;15.214;2024-02-28T11:23:06;32.70;23.00
34815;DHT22;21030;53.912;15.214;2024-02-28T11:25:33;32.90;22.80
34815;DHT22;21030;53.912;15.214;2024-02-28T11:28:00;33.00;22.60
34815;DHT22;21030;53.912;15.214;2024-02-28T11:30:28;32.90;22.60
34815;DHT22;21030;53.912;15.214;2024-02-28T11:32:55;33.00;22.70
34815;DHT22;21030;53.912;15.214;2024-02-28T11:35:28;32.90;22.50
34815;DHT22;21030;53.912;15.214;2024-02-28T11:37:55;33.10;22.70
34815;DHT22;21030;53.912;15.214;2024-02-28T11:40:26;33.10;22.40
34815;DHT22;21030;53.912;15.214;2024-02-28T11:42:56;33.20;22.40
34815;DHT22;21030;53.912;15.214;2024-02-28T11:45:26;33.20;22.40
34815;DHT22;21030;53.912;15.214;2024-02-28T11:47:54;32.90;22.30
34815;DHT22;21030;53.912;15.214;2024-02-28T11:50:21;32.90;22.60
34815;DHT22;21030;53.912;15.214;2024-02-28T11:52:48;32.60;22.60
34815;DHT22;21030;53.912;15.214;2024-02-28T11:55:15;33.00;22.50
34815;DHT22;21030;53.912;15.214;2024-02-28T11:57:42;33.20;22.40
34815;DHT22;21030;53.912;15.214;2024-02-28T12:00:10;32.70;22.20
34815;DHT22;21030;53.912;15.214;2024-02-28T12:02:40;33.10;22.30
34815;DHT22;21030;53.912;15.214;2024-02-28T12:05:07;33.20;22.30
34815;DHT22;21030;53.912;15.214;2024-02-28T12:07:36;32.70;22.20
34815;DHT22;21030;53.912;15.214;2024-02-28T12:10:04;32.90;22.30
34815;DHT22;21030;53.912;15.214;2024-02-28T12:12:31;33.10;22.20
34815;DHT22;21030;53.912;15.214;2024-02-28T12:14:59;33.00;22.30
34815;DHT22;21030;53.912;15.214;2024-02-28T12:17:26;33.20;22.20
34815;DHT22;21030;53.912;15.214;2024-02-28T12:19:53;32.60;22.10
34815;DHT22;21030;53.912;15.214;2024-02-28T12:22:22;32.80;22.40
34815;DHT22;21030;53.912;15.214;2024-02-28T12:24:49;32.70;22.20
34815;DHT22;21030;53.912;15.214;2024-02-28T12:27:16;32.00;22.50
34815;DHT22;21030;53.912;15.214;2024-02-28T12:29:43;31.90;22.80
34815;DHT22;21030;53.912;15.214;2024-02-28T12:32:10;32.40;22.70
34815;DHT22;21030;53.912;15.214;2024-02-28T12:34:39;32.60;22.60
34815;DHT22;21030;53.912;15.214;2024-02-28T12:37:06;32.70;22.50
34815;DHT22;21030;53.912;15.214;2024-02-28T12:39:33;32.80;22.60
34815;DHT22;21030;53.912;15.214;2024-02-28T12:42:01;32.90;22.30
34815;DHT22;21030;53.912;15.214;2024-02-28T12:44:29;33.10;22.30
34815;DHT22;21030;53.912;15.214;2024-02-28T12:46:56;32.40;22.40
34815;DHT22;21030;53.912;15.214;2024-02-28T12:49:23;32.30;22.60
34815;DHT22;21030;53.912;15.214;2024-02-28T12:51:50;31.70;22.70
34815;DHT22;21030;53.912;15.214;2024-02-28T12:54:18;32.10;22.70
34815;DHT22;21030;53.912;15.214;2024-02-28T12:56:48;32.50;22.70
34815;DHT22;21030;53.912;15.214;2024-02-28T12:59:16;32.60;22.40
34815;DHT22;21030;53.912;15.214;2024-02-28T13:01:43;32.60;22.30
34815;DHT22;21030;53.912;15.214;2024-02-28T13:04:10;32.60;22.20
34815;DHT22;21030;53.912;15.214;2024-02-28T13:06:38;32.80;22.10
34815;DHT22;21030;53.912;15.214;2024-02-28T13:09:06;33.00;22.10
34815;DHT22;21030;53.912;15.214;2024-02-28T13:11:39;33.00;22.20
34815;DHT22;21030;53.912;15.214;2024-02-28T13:14:07;32.30;22.20
34815;DHT22;21030;53.912;15.214;2024-02-28T13:16:35;32.20;22.50
34815;DHT22;21030;53.912;15.214;2024-02-28T13:19:03;32.20;22.40
34815;DHT22;21030;53.912;15.214;2024-02-28T13:21:31;31.50;22.80
34815;DHT22;21030;53.912;15.214;2024-02-28T13:24:01;30.90;23.60
34815;DHT22;21030;53.912;15.214;2024-02-28T13:26:29;30.60;23.50
34815;DHT22;21030;53.912;15.214;2024-02-28T13:28:56;31.00;23.60
34815;DHT22;21030;53.912;15.214;2024-02-28T13:31:23;31.30;23.40
34815;DHT22;21030;53.912;15.214;2024-02-28T13:33:51;31.70;22.90
34815;DHT22;21030;53.912;15.214;2024-02-28T13:36:18;31.10;23.30
34815;DHT22;21030;53.912;15.214;2024-02-28T13:38:45;31.20;23.40
34815;DHT22;21030;53.912;15.214;2024-02-28T13:41:13;30.90;23.40
34815;DHT22;21030;53.912;15.214;2024-02-28T13:43:40;30.70;23.10
34815;DHT22;21030;53.912;15.214;2024-02-28T13:46:07;30.40;23.60
34815;DHT22;21030;53.912;15.214;2024-02-28T13:48:34;30.50;23.60
34815;DHT22;21030;53.912;15.214;2024-02-28T13:51:02;31.00;23.40
34815;DHT22;21030;53.912;15.214;2024-02-28T13:53:29;31.10;23.20
34815;DHT22;21030;53.912;15.214;2024-02-28T13:55:56;31.20;23.20
34815;DHT22;21030;53.912;15.214;2024-02-28T13:58:23;31.50;22.90
34815;DHT22;21030;53.912;15.214;2024-02-28T14:00:54;31.70;22.80
34815;DHT22;21030;53.912;15.214;2024-02-28T14:03:22;31.80;22.80
34815;DHT22;21030;53.912;15.214;2024-02-28T14:05:52;32.20;22.60
34815;DHT22;21030;53.912;15.214;2024-02-28T14:08:19;32.60;22.40
34815;DHT22;21030;53.912;15.214;2024-02-28T14:10:46;32.90;22.20
34815;DHT22;21030;53.912;15.214;2024-02-28T14:13:14;33.00;22.00
34815;DHT22;21030;53.912;15.214;2024-02-28T14:15:44;33.10;21.80
34815;DHT22;21030;53.912;15.214;2024-02-28T14:18:12;33.10;21.70
34815;DHT22;21030;53.912;15.214;2024-02-28T14:20:40;32.90;21.60
34815;DHT22;21030;53.912;15.214;2024-02-28T14:23:07;31.90;22.30
34815;DHT22;21030;53.912;15.214;2024-02-28T14:25:34;32.30;22.20
34815;DHT22;21030;53.912;15.214;2024-02-28T14:28:01;32.40;21.90
34815;DHT22;21030;53.912;15.214;2024-02-28T14:30:28;31.90;22.20
34815;DHT22;21030;53.912;15.214;2024-02-28T14:32:55;31.30;22.50
34815;DHT22;21030;53.912;15.214;2024-02-28T14:35:22;31.80;22.60
34815;DHT22;21030;53.912;15.214;2024-02-28T14:37:50;32.00;22.30
34815;DHT22;21030;53.912;15.214;2024-02-28T14:40:19;32.00;22.20
34815;DHT22;21030;53.912;15.214;2024-02-28T14:42:46;32.20;22.20
34815;DHT22;21030;53.912;15.214;2024-02-28T14:45:13;32.20;22.00
34815;DHT22;21030;53.912;15.214;2024-02-28T14:47:44;32.10;22.00
34815;DHT22;21030;53.912;15.214;2024-02-28T14:50:13;31.80;22.10
34815;DHT22;21030;53.912;15.214;2024-02-28T14:52:41;31.90;22.20
34815;DHT22;21030;53.912;15.214;2024-02-28T14:55:09;31.20;22.50
34815;DHT22;21030;53.912;15.214;2024-02-28T14:57:37;31.10;22.70
34815;DHT22;21030;53.912;15.214;2024-02-28T15:00:07;30.30;22.90
34815;DHT22;21030;53.912;15.214;2024-02-28T15:02:35;29.70;23.40
34815;DHT22;21030;53.912;15.214;2024-02-28T15:05:03;30.20;23.00
34815;DHT22;21030;53.912;15.214;2024-02-28T15:07:33;30.80;22.90
34815;DHT22;21030;53.912;15.214;2024-02-28T15:10:06;30.50;22.70
34815;DHT22;21030;53.912;15.214;2024-02-28T15:12:34;30.00;23.20
34815;DHT22;21030;53.912;15.214;2024-02-28T15:15:03;30.50;23.10
34815;DHT22;21030;53.912;15.214;2024-02-28T15:17:33;30.00;23.50
34815;DHT22;21030;53.912;15.214;2024-02-28T15:20:01;29.50;23.30
34815;DHT22;21030;53.912;15.214;2024-02-28T15:22:35;29.20;23.80